sensor_id;sensor_type;location;lat;lon;timestamp;temperature;humidity
8892;DHT22;4482;54.332;10.118;2023-06-26T00:01:53;20.70;99.90
8892;DHT22;4482;54.332;10.118;2023-06-26T00:04:20;20.70;99.90
8892;DHT22;4482;54.332;10.118;2023-06-26T00:06:46;20.70;99.90
8892;DHT22;4482;54.332;10.118;2023-06-26T00:09:15;20.70;99.90
8892;DHT22;4482;54.332;10.118;2023-06-26T00:11:41;20.70;99.90
8892;DHT22;4482;54.332;10.118;2023-06-26T00:14:08;20.80;99.90
8892;DHT22;4482;54.332;10.118;2023-06-26T00:16:36;20.70;99.90
8892;DHT22;4482;54.332;10.118;2023-06-26T00:19:03;20.80;99.90
8892;DHT22;4482;54.332;10.118;2023-06-26T00:21:30;20.80;99.90
8892;DHT22;4482;54.332;10.118;2023-06-26T00:23:56;20.80;99.90
8892;DHT22;4482;54.332;10.118;2023-06-26T00:26:23;20.80;99.90
8892;DHT22;4482;54.332;10.118;2023-06-26T00:28:50;20.80;99.90
8892;DHT22;4482;54.332;10.118;2023-06-26T00:31:17;20.70;99.90
8892;DHT22;4482;54.332;10.118;2023-06-26T00:33:45;20.70;99.90
8892;DHT22;4482;54.332;10.118;2023-06-26T00:36:11;20.70;99.90
8892;DHT22;4482;54.332;10.118;2023-06-26T00:38:38;20.60;99.90
8892;DHT22;4482;54.332;10.118;2023-06-26T00:41:05;20.60;99.90
8892;DHT22;4482;54.332;10.118;2023-06-26T00:43:37;20.60;99.90
8892;DHT22;4482;54.332;10.118;2023-06-26T00:46:04;20.60;99.90
8892;DHT22;4482;54.332;10.118;2023-06-26T00:48:31;20.60;99.90
8892;DHT22;4482;54.332;10.118;2023-06-26T00:50:59;20.60;99.90
8892;DHT22;4482;54.332;10.118;2023-06-26T00:53:26;20.60;99.90
8892;DHT22;4482;54.332;10.118;2023-06-26T00:55:52;20.60;99.90
8892;DHT22;4482;54.332;10.118;2023-06-26T00:58:19;20.50;99.90
8892;DHT22;4482;54.332;10.118;2023-06-26T01:00:47;20.50;99.90
8892;DHT22;4482;54.332;10.118;2023-06-26T01:03:14;20.50;99.90
8892;DHT22;4482;54.332;10.118;2023-06-26T01:05:41;20.50;99.90
8892;DHT22;4482;54.332;10.118;2023-06-26T01:08:12;20.50;99.90
8892;DHT22;4482;54.332;10.118;2023-06-26T01:10:39;20.50;99.90
8892;DHT22;4482;54.332;10.118;2023-06-26T01:13:06;20.50;99.90
8892;DHT22;4482;54.332;10.118;2023-06-26T01:15:33;20.50;99.90
8892;DHT22;4482;54.332;10.118;2023-06-26T01:18:00;20.50;99.90
8892;DHT22;4482;54.332;10.118;2023-06-26T01:20:29;20.50;99.90
8892;DHT22;4482;54.332;10.118;2023-06-26T01:22:57;20.60;99.90
8892;DHT22;4482;54.332;10.118;2023-06-26T01:25:32;20.50;99.90
8892;DHT22;4482;54.332;10.118;2023-06-26T01:28:05;20.50;99.90
8892;DHT22;4482;54.332;10.118;2023-06-26T01:30:32;20.50;99.90
8892;DHT22;4482;54.332;10.118;2023-06-26T01:33:00;20.50;99.90
8892;DHT22;4482;54.332;10.118;2023-06-26T01:35:27;20.50;99.90
8892;DHT22;4482;54.332;10.118;2023-06-26T01:40:39;20.50;99.90
8892;DHT22;4482;54.332;10.118;2023-06-26T01:43:09;20.50;99.90
8892;DHT22;4482;54.332;10.118;2023-06-26T01:45:37;20.40;99.90
8892;DHT22;4482;54.332;10.118;2023-06-26T01:48:05;20.50;99.90
8892;DHT22;4482;54.332;10.118;2023-06-26T01:50:32;20.50;99.90
8892;DHT22;4482;54.332;10.118;2023-06-26T01:53:02;20.40;99.90
8892;DHT22;4482;54.332;10.118;2023-06-26T01:55:31;20.40;99.90
8892;DHT22;4482;54.332;10.118;2023-06-26T01:58:01;20.40;99.90
8892;DHT22;4482;54.332;10.118;2023-06-26T02:00:29;20.40;99.90
8892;DHT22;4482;54.332;10.118;2023-06-26T02:02:57;20.40;99.90
8892;DHT22;4482;54.332;10.118;2023-06-26T02:05:24;20.40;99.90
8892;DHT22;4482;54.332;10.118;2023-06-26T02:07:51;20.40;99.90
8892;DHT22;4482;54.332;10.118;2023-06-26T02:10:17;20.40;99.90
8892;DHT22;4482;54.332;10.118;2023-06-26T02:12:44;20.30;99.90
8892;DHT22;4482;54.332;10.118;2023-06-26T02:15:10;20.30;99.90
8892;DHT22;4482;54.332;10.118;2023-06-26T02:17:38;20.40;99.90
8892;DHT22;4482;54.332;10.118;2023-06-26T02:20:05;20.40;99.90
8892;DHT22;4482;54.332;10.118;2023-06-26T02:22:34;20.30;99.90
8892;DHT22;4482;54.332;10.118;2023-06-26T02:25:01;20.40;99.90
8892;DHT22;4482;54.332;10.118;2023-06-26T02:27:28;20.40;99.90
8892;DHT22;4482;54.332;10.118;2023-06-26T02:29:54;20.40;99.90
8892;DHT22;4482;54.332;10.118;2023-06-26T02:32:21;20.30;99.90
8892;DHT22;4482;54.332;10.118;2023-06-26T02:34:49;20.30;99.90
8892;DHT22;4482;54.332;10.118;2023-06-26T02:37:17;20.30;99.90
8892;DHT22;4482;54.332;10.118;2023-06-26T02:39:43;20.30;99.90
8892;DHT22;4482;54.332;10.118;2023-06-26T02:42:10;20.30;99.90
8892;DHT22;4482;54.332;10.118;2023-06-26T02:44:37;20.30;99.90
8892;DHT22;4482;54.332;10.118;2023-06-26T02:47:03;20.30;99.90
8892;DHT22;4482;54.332;10.118;2023-06-26T02:49:30;20.30;99.90
8892;DHT22;4482;54.332;10.118;2023-06-26T02:52:01;20.20;99.90
8892;DHT22;4482;54.332;10.118;2023-06-26T02:54:28;20.30;99.90
8892;DHT22;4482;54.332;10.118;2023-06-26T02:56:54;20.20;99.90
8892;DHT22;4482;54.332;10.118;2023-06-26T02:59:21;20.30;99.90
8892;DHT22;4482;54.332;10.118;2023-06-26T03:01:48;20.20;99.90
8892;DHT22;4482;54.332;10.118;2023-06-26T03:04:14;20.20;99.90
8892;DHT22;4482;54.332;10.118;2023-06-26T03:06:43;20.20;99.90
8892;DHT22;4482;54.332;10.118;2023-06-26T03:09:11;20.20;99.90
8892;DHT22;4482;54.332;10.118;2023-06-26T03:11:37;20.30;99.90
8892;DHT22;4482;54.332;10.118;2023-06-26T03:14:04;20.30;99.90
8892;DHT22;4482;54.332;10.118;2023-06-26T03:16:30;20.30;99.90
8892;DHT22;4482;54.332;10.118;2023-06-26T03:18:57;20.20;99.90
8892;DHT22;4482;54.332;10.118;2023-06-26T03:21:24;20.30;99.90
8892;DHT22;4482;54.332;10.118;2023-06-26T03:23:50;20.30;99.90
8892;DHT22;4482;54.332;10.118;2023-06-26T03:26:18;20.30;99.90
8892;DHT22;4482;54.332;10.118;2023-06-26T03:28:45;20.30;99.90
8892;DHT22;4482;54.332;10.118;2023-06-26T03:31:12;20.30;99.90
8892;DHT22;4482;54.332;10.118;2023-06-26T03:33:39;20.30;99.90
8892;DHT22;4482;54.332;10.118;2023-06-26T03:36:05;20.30;99.90
8892;DHT22;4482;54.332;10.118;2023-06-26T03:38:32;20.40;99.90
8892;DHT22;4482;54.332;10.118;2023-06-26T03:40:59;20.40;99.90
8892;DHT22;4482;54.332;10.118;2023-06-26T03:43:27;20.50;99.90
8892;DHT22;4482;54.332;10.118;2023-06-26T03:45:53;20.50;99.90
8892;DHT22;4482;54.332;10.118;2023-06-26T03:48:20;20.50;99.90
8892;DHT22;4482;54.332;10.118;2023-06-26T03:50:47;20.50;99.90
8892;DHT22;4482;54.332;10.118;2023-06-26T03:53:13;20.60;99.90
8892;DHT22;4482;54.332;10.118;2023-06-26T03:55:42;20.70;99.90
8892;DHT22;4482;54.332;10.118;2023-06-26T03:58:09;20.70;99.90
8892;DHT22;4482;54.332;10.118;2023-06-26T04:00:37;20.80;99.90
8892;DHT22;4482;54.332;10.118;2023-06-26T04:03:04;20.80;99.90
8892;DHT22;4482;54.332;10.118;2023-06-26T04:05:30;20.90;99.90
8892;DHT22;4482;54.332;10.118;2023-06-26T04:07:57;20.90;99.90
8892;DHT22;4482;54.332;10.118;2023-06-26T04:10:24;21.00;99.90
8892;DHT22;4482;54.332;10.118;2023-06-26T04:12:50;21.10;99.90
8892;DHT22;4482;54.332;10.118;2023-06-26T04:15:17;21.20;99.90
8892;DHT22;4482;54.332;10.118;2023-06-26T04:17:45;21.30;99.90
8892;DHT22;4482;54.332;10.118;2023-06-26T04:20:11;21.40;99.90
8892;DHT22;4482;54.332;10.118;2023-06-26T04:22:38;21.40;99.90
8892;DHT22;4482;54.332;10.118;2023-06-26T04:25:05;21.60;99.90
8892;DHT22;4482;54.332;10.118;2023-06-26T04:27:32;21.70;99.90
8892;DHT22;4482;54.332;10.118;2023-06-26T04:29:58;21.90;99.90
8892;DHT22;4482;54.332;10.118;2023-06-26T04:32:25;21.90;99.90
8892;DHT22;4482;54.332;10.118;2023-06-26T04:34:53;22.00;99.90
8892;DHT22;4482;54.332;10.118;2023-06-26T04:37:20;22.10;99.90
8892;DHT22;4482;54.332;10.118;2023-06-26T04:39:46;22.20;99.90
8892;DHT22;4482;54.332;10.118;2023-06-26T04:42:13;22.40;99.90
8892;DHT22;4482;54.332;10.118;2023-06-26T04:44:39;22.40;99.90
8892;DHT22;4482;54.332;10.118;2023-06-26T04:47:07;22.60;99.90
8892;DHT22;4482;54.332;10.118;2023-06-26T04:49:34;22.70;99.90
8892;DHT22;4482;54.332;10.118;2023-06-26T04:52:02;22.70;99.90
8892;DHT22;4482;54.332;10.118;2023-06-26T04:54:29;22.80;99.90
8892;DHT22;4482;54.332;10.118;2023-06-26T04:56:55;22.90;99.90
8892;DHT22;4482;54.332;10.118;2023-06-26T04:59:22;23.00;99.90
8892;DHT22;4482;54.332;10.118;2023-06-26T05:01:49;23.10;99.90
8892;DHT22;4482;54.332;10.118;2023-06-26T05:04:15;23.20;99.90
8892;DHT22;4482;54.332;10.118;2023-06-26T05:06:42;23.40;99.90
8892;DHT22;4482;54.332;10.118;2023-06-26T05:09:10;23.60;99.90
8892;DHT22;4482;54.332;10.118;2023-06-26T05:11:37;23.70;99.90
8892;DHT22;4482;54.332;10.118;2023-06-26T05:14:04;23.80;99.90
8892;DHT22;4482;54.332;10.118;2023-06-26T05:16:32;24.00;99.90
8892;DHT22;4482;54.332;10.118;2023-06-26T05:18:59;24.20;99.90
8892;DHT22;4482;54.332;10.118;2023-06-26T05:21:26;24.40;99.90
8892;DHT22;4482;54.332;10.118;2023-06-26T05:23:53;24.70;99.90
8892;DHT22;4482;54.332;10.118;2023-06-26T05:26:23;25.00;99.90
8892;DHT22;4482;54.332;10.118;2023-06-26T05:28:50;25.30;99.90
8892;DHT22;4482;54.332;10.118;2023-06-26T05:31:17;25.60;99.90
8892;DHT22;4482;54.332;10.118;2023-06-26T05:33:44;25.70;99.90
8892;DHT22;4482;54.332;10.118;2023-06-26T05:36:11;25.80;99.90
8892;DHT22;4482;54.332;10.118;2023-06-26T05:38:38;26.10;99.90
8892;DHT22;4482;54.332;10.118;2023-06-26T05:41:05;26.20;99.90
8892;DHT22;4482;54.332;10.118;2023-06-26T05:43:33;26.30;99.90
8892;DHT22;4482;54.332;10.118;2023-06-26T05:46:00;26.50;99.90
8892;DHT22;4482;54.332;10.118;2023-06-26T05:48:27;26.50;99.90
8892;DHT22;4482;54.332;10.118;2023-06-26T05:50:54;26.70;99.90
8892;DHT22;4482;54.332;10.118;2023-06-26T05:53:21;26.80;99.90
8892;DHT22;4482;54.332;10.118;2023-06-26T05:55:47;27.00;99.90
8892;DHT22;4482;54.332;10.118;2023-06-26T05:58:14;27.10;99.90
8892;DHT22;4482;54.332;10.118;2023-06-26T06:00:43;27.40;99.90
8892;DHT22;4482;54.332;10.118;2023-06-26T06:03:10;27.30;99.90
8892;DHT22;4482;54.332;10.118;2023-06-26T06:05:37;27.20;99.90
8892;DHT22;4482;54.332;10.118;2023-06-26T06:08:04;27.30;99.90
8892;DHT22;4482;54.332;10.118;2023-06-26T06:10:30;27.50;99.90
8892;DHT22;4482;54.332;10.118;2023-06-26T06:12:57;27.60;99.90
8892;DHT22;4482;54.332;10.118;2023-06-26T06:15:24;27.80;99.90
8892;DHT22;4482;54.332;10.118;2023-06-26T06:17:52;27.90;99.90
8892;DHT22;4482;54.332;10.118;2023-06-26T06:20:18;28.10;99.90
8892;DHT22;4482;54.332;10.118;2023-06-26T06:22:46;28.20;99.90
8892;DHT22;4482;54.332;10.118;2023-06-26T06:25:13;28.50;99.90
8892;DHT22;4482;54.332;10.118;2023-06-26T06:27:41;28.70;99.90
8892;DHT22;4482;54.332;10.118;2023-06-26T06:30:08;28.90;99.90
8892;DHT22;4482;54.332;10.118;2023-06-26T06:32:35;28.90;99.90
8892;DHT22;4482;54.332;10.118;2023-06-26T06:35:03;28.90;99.90
8892;DHT22;4482;54.332;10.118;2023-06-26T06:37:35;29.00;99.90
8892;DHT22;4482;54.332;10.118;2023-06-26T06:40:01;29.00;99.90
8892;DHT22;4482;54.332;10.118;2023-06-26T06:42:28;29.20;99.90
8892;DHT22;4482;54.332;10.118;2023-06-26T06:44:55;29.50;99.90
8892;DHT22;4482;54.332;10.118;2023-06-26T06:47:21;29.80;99.90
8892;DHT22;4482;54.332;10.118;2023-06-26T06:49:48;30.00;99.90
8892;DHT22;4482;54.332;10.118;2023-06-26T06:52:16;30.10;99.90
8892;DHT22;4482;54.332;10.118;2023-06-26T06:54:52;30.00;99.90
8892;DHT22;4482;54.332;10.118;2023-06-26T06:57:19;30.10;99.90
8892;DHT22;4482;54.332;10.118;2023-06-26T06:59:46;30.30;99.90
8892;DHT22;4482;54.332;10.118;2023-06-26T07:02:13;30.30;99.90
8892;DHT22;4482;54.332;10.118;2023-06-26T07:04:40;30.60;99.90
8892;DHT22;4482;54.332;10.118;2023-06-26T07:07:07;30.70;99.70
8892;DHT22;4482;54.332;10.118;2023-06-26T07:09:35;30.80;99.60
8892;DHT22;4482;54.332;10.118;2023-06-26T07:12:02;31.10;98.60
8892;DHT22;4482;54.332;10.118;2023-06-26T07:14:29;31.50;98.50
8892;DHT22;4482;54.332;10.118;2023-06-26T07:16:55;31.70;96.60
8892;DHT22;4482;54.332;10.118;2023-06-26T07:19:22;31.80;96.50
8892;DHT22;4482;54.332;10.118;2023-06-26T07:21:50;32.00;95.10
8892;DHT22;4482;54.332;10.118;2023-06-26T07:24:17;32.20;95.70
8892;DHT22;4482;54.332;10.118;2023-06-26T07:26:45;32.40;96.50
8892;DHT22;4482;54.332;10.118;2023-06-26T07:29:11;32.20;95.40
8892;DHT22;4482;54.332;10.118;2023-06-26T07:31:38;32.30;94.80
8892;DHT22;4482;54.332;10.118;2023-06-26T07:34:05;32.60;94.90
8892;DHT22;4482;54.332;10.118;2023-06-26T07:36:31;33.20;94.20
8892;DHT22;4482;54.332;10.118;2023-06-26T07:38:58;33.90;92.50
8892;DHT22;4482;54.332;10.118;2023-06-26T07:41:25;34.00;90.50
8892;DHT22;4482;54.332;10.118;2023-06-26T07:43:53;34.60;89.80
8892;DHT22;4482;54.332;10.118;2023-06-26T07:46:19;35.50;86.10
8892;DHT22;4482;54.332;10.118;2023-06-26T07:48:46;35.80;86.60
8892;DHT22;4482;54.332;10.118;2023-06-26T07:51:13;36.20;81.70
8892;DHT22;4482;54.332;10.118;2023-06-26T07:53:39;36.10;79.70
8892;DHT22;4482;54.332;10.118;2023-06-26T07:56:06;36.70;78.70
8892;DHT22;4482;54.332;10.118;2023-06-26T07:58:33;37.40;73.70
8892;DHT22;4482;54.332;10.118;2023-06-26T08:01:02;37.10;70.60
8892;DHT22;4482;54.332;10.118;2023-06-26T08:03:28;37.70;69.50
8892;DHT22;4482;54.332;10.118;2023-06-26T08:05:55;37.90;66.80
8892;DHT22;4482;54.332;10.118;2023-06-26T08:08:22;37.70;68.50
8892;DHT22;4482;54.332;10.118;2023-06-26T08:10:50;37.70;65.20
8892;DHT22;4482;54.332;10.118;2023-06-26T08:13:18;38.30;65.00
8892;DHT22;4482;54.332;10.118;2023-06-26T08:15:47;39.30;61.60
8892;DHT22;4482;54.332;10.118;2023-06-26T08:18:17;39.50;59.40
8892;DHT22;4482;54.332;10.118;2023-06-26T08:20:45;39.70;58.00
8892;DHT22;4482;54.332;10.118;2023-06-26T08:23:13;39.60;54.90
8892;DHT22;4482;54.332;10.118;2023-06-26T08:25:46;39.90;53.80
8892;DHT22;4482;54.332;10.118;2023-06-26T08:28:16;40.20;52.50
8892;DHT22;4482;54.332;10.118;2023-06-26T08:30:50;40.20;50.40
8892;DHT22;4482;54.332;10.118;2023-06-26T08:33:22;39.60;51.60
8892;DHT22;4482;54.332;10.118;2023-06-26T08:35:50;39.70;51.00
8892;DHT22;4482;54.332;10.118;2023-06-26T08:38:18;39.70;48.80
8892;DHT22;4482;54.332;10.118;2023-06-26T08:40:47;39.90;49.80
8892;DHT22;4482;54.332;10.118;2023-06-26T08:43:20;39.10;49.10
8892;DHT22;4482;54.332;10.118;2023-06-26T08:45:52;39.10;49.50
8892;DHT22;4482;54.332;10.118;2023-06-26T08:48:21;39.00;47.50
8892;DHT22;4482;54.332;10.118;2023-06-26T08:50:48;39.40;46.40
8892;DHT22;4482;54.332;10.118;2023-06-26T08:53:20;39.40;46.80
8892;DHT22;4482;54.332;10.118;2023-06-26T08:56:07;38.00;48.40
8892;DHT22;4482;54.332;10.118;2023-06-26T08:58:37;36.50;50.20
8892;DHT22;4482;54.332;10.118;2023-06-26T09:01:07;35.80;52.10
8892;DHT22;4482;54.332;10.118;2023-06-26T09:03:52;36.40;51.80
8892;DHT22;4482;54.332;10.118;2023-06-26T09:06:25;35.60;52.30
8892;DHT22;4482;54.332;10.118;2023-06-26T09:08:54;33.80;55.80
8892;DHT22;4482;54.332;10.118;2023-06-26T09:11:25;32.50;59.80
8892;DHT22;4482;54.332;10.118;2023-06-26T09:13:54;31.20;64.60
8892;DHT22;4482;54.332;10.118;2023-06-26T09:16:25;30.20;68.60
8892;DHT22;4482;54.332;10.118;2023-06-26T09:18:55;29.30;77.30
8892;DHT22;4482;54.332;10.118;2023-06-26T09:21:22;28.30;90.40
8892;DHT22;4482;54.332;10.118;2023-06-26T09:23:50;27.20;99.90
8892;DHT22;4482;54.332;10.118;2023-06-26T09:26:22;26.10;99.90
8892;DHT22;4482;54.332;10.118;2023-06-26T09:28:52;25.10;99.90
8892;DHT22;4482;54.332;10.118;2023-06-26T09:31:19;24.70;99.90
8892;DHT22;4482;54.332;10.118;2023-06-26T09:33:48;25.00;99.90
8892;DHT22;4482;54.332;10.118;2023-06-26T09:36:20;27.30;99.90
8892;DHT22;4482;54.332;10.118;2023-06-26T09:38:47;29.60;99.90
8892;DHT22;4482;54.332;10.118;2023-06-26T09:41:15;30.60;99.90
8892;DHT22;4482;54.332;10.118;2023-06-26T09:43:45;31.40;99.90
8892;DHT22;4482;54.332;10.118;2023-06-26T09:46:14;32.20;99.90
8892;DHT22;4482;54.332;10.118;2023-06-26T09:48:41;31.60;98.40
8892;DHT22;4482;54.332;10.118;2023-06-26T09:51:08;29.80;99.90
8892;DHT22;4482;54.332;10.118;2023-06-26T09:53:36;28.60;99.90
8892;DHT22;4482;54.332;10.118;2023-06-26T09:56:04;27.70;99.90
8892;DHT22;4482;54.332;10.118;2023-06-26T09:58:31;27.30;99.90
8892;DHT22;4482;54.332;10.118;2023-06-26T10:00:59;26.60;99.90
8892;DHT22;4482;54.332;10.118;2023-06-26T10:03:25;25.90;99.90
8892;DHT22;4482;54.332;10.118;2023-06-26T10:05:52;25.50;99.90
8892;DHT22;4482;54.332;10.118;2023-06-26T10:08:19;25.20;99.90
8892;DHT22;4482;54.332;10.118;2023-06-26T10:10:48;24.90;99.90
8892;DHT22;4482;54.332;10.118;2023-06-26T10:13:15;24.60;99.90
8892;DHT22;4482;54.332;10.118;2023-06-26T10:15:42;24.30;99.90
8892;DHT22;4482;54.332;10.118;2023-06-26T10:18:10;24.00;99.90
8892;DHT22;4482;54.332;10.118;2023-06-26T10:20:37;23.70;99.90
8892;DHT22;4482;54.332;10.118;2023-06-26T10:23:09;23.40;99.90
8892;DHT22;4482;54.332;10.118;2023-06-26T10:25:37;23.10;99.90
8892;DHT22;4482;54.332;10.118;2023-06-26T10:28:07;22.90;99.90
8892;DHT22;4482;54.332;10.118;2023-06-26T10:30:34;22.60;99.90
8892;DHT22;4482;54.332;10.118;2023-06-26T10:33:02;22.30;99.90
8892;DHT22;4482;54.332;10.118;2023-06-26T10:35:31;21.60;99.90
8892;DHT22;4482;54.332;10.118;2023-06-26T10:38:01;20.90;99.90
8892;DHT22;4482;54.332;10.118;2023-06-26T10:40:39;20.60;99.90
8892;DHT22;4482;54.332;10.118;2023-06-26T10:43:08;20.40;99.90
8892;DHT22;4482;54.332;10.118;2023-06-26T10:45:34;20.50;99.90
8892;DHT22;4482;54.332;10.118;2023-06-26T10:48:02;20.60;99.90
8892;DHT22;4482;54.332;10.118;2023-06-26T10:50:30;20.70;99.90
8892;DHT22;4482;54.332;10.118;2023-06-26T10:53:13;20.70;99.90
8892;DHT22;4482;54.332;10.118;2023-06-26T10:55:41;20.70;99.90
8892;DHT22;4482;54.332;10.118;2023-06-26T11:00:51;20.80;99.90
8892;DHT22;4482;54.332;10.118;2023-06-26T11:03:24;20.80;99.90
8892;DHT22;4482;54.332;10.118;2023-06-26T11:06:03;20.80;99.90
8892;DHT22;4482;54.332;10.118;2023-06-26T11:08:43;20.90;99.90
8892;DHT22;4482;54.332;10.118;2023-06-26T11:11:10;21.00;99.90
8892;DHT22;4482;54.332;10.118;2023-06-26T11:13:37;21.20;99.90
8892;DHT22;4482;54.332;10.118;2023-06-26T11:16:05;21.60;99.90
8892;DHT22;4482;54.332;10.118;2023-06-26T11:18:32;22.10;99.90
8892;DHT22;4482;54.332;10.118;2023-06-26T11:21:04;22.50;99.90
8892;DHT22;4482;54.332;10.118;2023-06-26T11:23:30;22.80;99.90
8892;DHT22;4482;54.332;10.118;2023-06-26T11:26:11;22.60;99.90
8892;DHT22;4482;54.332;10.118;2023-06-26T11:28:38;22.40;99.90
8892;DHT22;4482;54.332;10.118;2023-06-26T11:31:06;22.20;99.90
8892;DHT22;4482;54.332;10.118;2023-06-26T11:33:33;22.10;99.90
8892;DHT22;4482;54.332;10.118;2023-06-26T11:36:07;22.10;99.90
8892;DHT22;4482;54.332;10.118;2023-06-26T11:38:36;21.90;99.90
8892;DHT22;4482;54.332;10.118;2023-06-26T11:41:03;21.80;99.90
8892;DHT22;4482;54.332;10.118;2023-06-26T11:43:33;22.30;99.90
8892;DHT22;4482;54.332;10.118;2023-06-26T11:46:00;23.00;99.90
8892;DHT22;4482;54.332;10.118;2023-06-26T11:48:28;25.10;99.90
8892;DHT22;4482;54.332;10.118;2023-06-26T11:50:56;26.00;99.90
8892;DHT22;4482;54.332;10.118;2023-06-26T11:53:22;25.50;99.90
8892;DHT22;4482;54.332;10.118;2023-06-26T11:55:49;25.20;99.90
8892;DHT22;4482;54.332;10.118;2023-06-26T11:58:16;24.70;99.90
8892;DHT22;4482;54.332;10.118;2023-06-26T12:00:42;24.50;99.90
8892;DHT22;4482;54.332;10.118;2023-06-26T12:03:09;24.20;99.90
8892;DHT22;4482;54.332;10.118;2023-06-26T12:05:38;24.10;99.90
8892;DHT22;4482;54.332;10.118;2023-06-26T12:08:04;23.70;99.90
8892;DHT22;4482;54.332;10.118;2023-06-26T12:10:32;23.40;99.90
8892;DHT22;4482;54.332;10.118;2023-06-26T12:12:59;23.50;99.90
8892;DHT22;4482;54.332;10.118;2023-06-26T12:15:26;23.50;99.90
8892;DHT22;4482;54.332;10.118;2023-06-26T12:17:54;23.40;99.90
8892;DHT22;4482;54.332;10.118;2023-06-26T12:20:21;23.30;99.90
8892;DHT22;4482;54.332;10.118;2023-06-26T12:22:50;23.20;99.90
8892;DHT22;4482;54.332;10.118;2023-06-26T12:25:23;23.10;99.90
8892;DHT22;4482;54.332;10.118;2023-06-26T12:27:50;23.00;99.90
8892;DHT22;4482;54.332;10.118;2023-06-26T12:30:16;22.80;99.90
8892;DHT22;4482;54.332;10.118;2023-06-26T12:32:46;22.80;99.90
8892;DHT22;4482;54.332;10.118;2023-06-26T12:35:13;22.70;99.90
8892;DHT22;4482;54.332;10.118;2023-06-26T12:37:41;22.70;99.90
8892;DHT22;4482;54.332;10.118;2023-06-26T12:40:20;22.80;99.90
8892;DHT22;4482;54.332;10.118;2023-06-26T12:42:48;22.80;99.90
8892;DHT22;4482;54.332;10.118;2023-06-26T12:45:15;22.90;99.90
8892;DHT22;4482;54.332;10.118;2023-06-26T12:47:42;23.00;99.90
8892;DHT22;4482;54.332;10.118;2023-06-26T12:50:09;23.10;99.90
8892;DHT22;4482;54.332;10.118;2023-06-26T12:52:35;23.20;99.90
8892;DHT22;4482;54.332;10.118;2023-06-26T12:55:02;23.30;99.90
8892;DHT22;4482;54.332;10.118;2023-06-26T12:57:30;23.40;99.90
8892;DHT22;4482;54.332;10.118;2023-06-26T12:59:57;23.50;99.90
8892;DHT22;4482;54.332;10.118;2023-06-26T13:02:26;23.70;99.90
8892;DHT22;4482;54.332;10.118;2023-06-26T13:04:52;23.70;99.90
8892;DHT22;4482;54.332;10.118;2023-06-26T13:07:19;23.60;99.90
8892;DHT22;4482;54.332;10.118;2023-06-26T13:09:47;23.50;99.90
8892;DHT22;4482;54.332;10.118;2023-06-26T13:12:17;23.50;99.90
8892;DHT22;4482;54.332;10.118;2023-06-26T13:14:45;23.60;99.90
8892;DHT22;4482;54.332;10.118;2023-06-26T13:17:12;23.60;99.90
8892;DHT22;4482;54.332;10.118;2023-06-26T13:19:39;23.60;99.90
8892;DHT22;4482;54.332;10.118;2023-06-26T13:22:05;23.50;99.90
8892;DHT22;4482;54.332;10.118;2023-06-26T13:24:32;23.40;99.90
8892;DHT22;4482;54.332;10.118;2023-06-26T13:26:59;23.40;99.90
8892;DHT22;4482;54.332;10.118;2023-06-26T13:29:27;23.30;99.90
8892;DHT22;4482;54.332;10.118;2023-06-26T13:31:55;23.10;99.90
8892;DHT22;4482;54.332;10.118;2023-06-26T13:34:23;23.00;99.90
8892;DHT22;4482;54.332;10.118;2023-06-26T13:36:52;22.90;99.90
8892;DHT22;4482;54.332;10.118;2023-06-26T13:39:19;22.90;99.90
8892;DHT22;4482;54.332;10.118;2023-06-26T13:41:46;23.10;99.90
8892;DHT22;4482;54.332;10.118;2023-06-26T13:44:13;23.20;99.90
8892;DHT22;4482;54.332;10.118;2023-06-26T13:46:39;23.30;99.90
8892;DHT22;4482;54.332;10.118;2023-06-26T13:49:07;23.20;99.90
8892;DHT22;4482;54.332;10.118;2023-06-26T13:51:34;23.10;99.90
8892;DHT22;4482;54.332;10.118;2023-06-26T13:54:01;22.90;99.90
8892;DHT22;4482;54.332;10.118;2023-06-26T13:56:27;22.90;99.90
8892;DHT22;4482;54.332;10.118;2023-06-26T13:58:55;22.70;99.90
8892;DHT22;4482;54.332;10.118;2023-06-26T14:01:22;22.60;99.90
8892;DHT22;4482;54.332;10.118;2023-06-26T14:03:49;22.50;99.90
8892;DHT22;4482;54.332;10.118;2023-06-26T14:06:17;22.50;99.90
8892;DHT22;4482;54.332;10.118;2023-06-26T14:08:44;22.50;99.90
8892;DHT22;4482;54.332;10.118;2023-06-26T14:11:10;22.60;99.90
8892;DHT22;4482;54.332;10.118;2023-06-26T14:13:37;22.50;99.90
8892;DHT22;4482;54.332;10.118;2023-06-26T14:16:04;22.50;99.90
8892;DHT22;4482;54.332;10.118;2023-06-26T14:18:31;22.60;99.90
8892;DHT22;4482;54.332;10.118;2023-06-26T14:20:57;22.80;99.90
8892;DHT22;4482;54.332;10.118;2023-06-26T14:23:25;22.90;99.90
8892;DHT22;4482;54.332;10.118;2023-06-26T14:25:52;22.90;99.90
8892;DHT22;4482;54.332;10.118;2023-06-26T14:28:19;22.80;99.90
8892;DHT22;4482;54.332;10.118;2023-06-26T14:30:45;22.70;99.90
8892;DHT22;4482;54.332;10.118;2023-06-26T14:33:12;22.80;99.90
8892;DHT22;4482;54.332;10.118;2023-06-26T14:35:39;22.70;99.90
8892;DHT22;4482;54.332;10.118;2023-06-26T14:38:05;22.60;99.90
8892;DHT22;4482;54.332;10.118;2023-06-26T14:40:33;22.60;99.90
8892;DHT22;4482;54.332;10.118;2023-06-26T14:43:00;22.50;99.90
8892;DHT22;4482;54.332;10.118;2023-06-26T14:45:27;22.50;99.90
8892;DHT22;4482;54.332;10.118;2023-06-26T14:47:53;22.60;99.90
8892;DHT22;4482;54.332;10.118;2023-06-26T14:50:20;22.60;99.90
8892;DHT22;4482;54.332;10.118;2023-06-26T14:52:46;22.80;99.90
8892;DHT22;4482;54.332;10.118;2023-06-26T14:55:13;22.80;99.90
8892;DHT22;4482;54.332;10.118;2023-06-26T14:57:41;22.80;99.90
8892;DHT22;4482;54.332;10.118;2023-06-26T15:00:08;22.60;99.90
8892;DHT22;4482;54.332;10.118;2023-06-26T15:02:35;22.50;99.90
8892;DHT22;4482;54.332;10.118;2023-06-26T15:05:02;22.40;99.90
8892;DHT22;4482;54.332;10.118;2023-06-26T15:07:28;22.30;99.90
8892;DHT22;4482;54.332;10.118;2023-06-26T15:09:55;22.40;99.90
8892;DHT22;4482;54.332;10.118;2023-06-26T15:12:22;22.50;99.90
8892;DHT22;4482;54.332;10.118;2023-06-26T15:14:50;22.60;99.90
8892;DHT22;4482;54.332;10.118;2023-06-26T15:17:17;22.60;99.90
8892;DHT22;4482;54.332;10.118;2023-06-26T15:19:44;22.70;99.90
8892;DHT22;4482;54.332;10.118;2023-06-26T15:22:11;22.80;99.90
8892;DHT22;4482;54.332;10.118;2023-06-26T15:24:37;22.60;99.90
8892;DHT22;4482;54.332;10.118;2023-06-26T15:27:04;22.50;99.90
8892;DHT22;4482;54.332;10.118;2023-06-26T15:29:31;22.40;99.90
8892;DHT22;4482;54.332;10.118;2023-06-26T15:31:59;22.30;99.90
8892;DHT22;4482;54.332;10.118;2023-06-26T15:34:26;22.30;99.90
8892;DHT22;4482;54.332;10.118;2023-06-26T15:36:52;22.30;99.90
8892;DHT22;4482;54.332;10.118;2023-06-26T15:39:19;22.30;99.90
8892;DHT22;4482;54.332;10.118;2023-06-26T15:41:46;22.20;99.90
8892;DHT22;4482;54.332;10.118;2023-06-26T15:44:12;22.20;99.90
8892;DHT22;4482;54.332;10.118;2023-06-26T15:46:39;22.10;99.90
8892;DHT22;4482;54.332;10.118;2023-06-26T15:49:07;22.00;99.90
8892;DHT22;4482;54.332;10.118;2023-06-26T15:51:33;21.90;99.90
8892;DHT22;4482;54.332;10.118;2023-06-26T15:54:01;21.70;99.90